sensor_id;sensor_type;location;lat;lon;timestamp;P1;durP1;ratioP1;P2;durP2;ratioP2
71665;SDS011;59503;53.486;10.196;2023-12-07T00:02:02;123.20;;;26.40;;
71665;SDS011;59503;53.486;10.196;2023-12-07T00:04:28;124.60;;;26.13;;
71665;SDS011;59503;53.486;10.196;2023-12-07T00:06:53;106.57;;;25.53;;
71665;SDS011;59503;53.486;10.196;2023-12-07T00:09:19;105.90;;;24.63;;
71665;SDS011;59503;53.486;10.196;2023-12-07T00:11:44;113.07;;;26.52;;
71665;SDS011;59503;53.486;10.196;2023-12-07T00:14:10;100.67;;;24.97;;
71665;SDS011;59503;53.486;10.196;2023-12-07T00:16:36;88.63;;;22.90;;
71665;SDS011;59503;53.486;10.196;2023-12-07T00:19:01;107.30;;;23.83;;
71665;SDS011;59503;53.486;10.196;2023-12-07T00:21:27;99.87;;;22.97;;
71665;SDS011;59503;53.486;10.196;2023-12-07T00:23:52;97.77;;;22.43;;
71665;SDS011;59503;53.486;10.196;2023-12-07T00:26:18;100.82;;;23.83;;
71665;SDS011;59503;53.486;10.196;2023-12-07T00:28:43;97.30;;;23.83;;
71665;SDS011;59503;53.486;10.196;2023-12-07T00:31:09;90.00;;;23.35;;
71665;SDS011;59503;53.486;10.196;2023-12-07T00:33:35;87.97;;;21.80;;
71665;SDS011;59503;53.486;10.196;2023-12-07T00:36:01;79.63;;;21.75;;
71665;SDS011;59503;53.486;10.196;2023-12-07T00:38:26;85.93;;;22.00;;
71665;SDS011;59503;53.486;10.196;2023-12-07T00:40:51;86.40;;;21.90;;
71665;SDS011;59503;53.486;10.196;2023-12-07T00:43:17;91.10;;;23.97;;
71665;SDS011;59503;53.486;10.196;2023-12-07T00:45:42;86.97;;;22.70;;
71665;SDS011;59503;53.486;10.196;2023-12-07T00:48:08;85.37;;;21.97;;
71665;SDS011;59503;53.486;10.196;2023-12-07T00:50:33;89.13;;;22.77;;
71665;SDS011;59503;53.486;10.196;2023-12-07T00:52:59;86.80;;;22.13;;
71665;SDS011;59503;53.486;10.196;2023-12-07T00:55:24;87.63;;;22.27;;
71665;SDS011;59503;53.486;10.196;2023-12-07T00:57:49;88.23;;;23.37;;
71665;SDS011;59503;53.486;10.196;2023-12-07T01:00:15;77.87;;;20.77;;
71665;SDS011;59503;53.486;10.196;2023-12-07T01:02:40;76.30;;;21.42;;
71665;SDS011;59503;53.486;10.196;2023-12-07T01:05:06;86.77;;;21.60;;
71665;SDS011;59503;53.486;10.196;2023-12-07T01:07:31;86.93;;;22.40;;
71665;SDS011;59503;53.486;10.196;2023-12-07T01:09:57;84.45;;;22.33;;
71665;SDS011;59503;53.486;10.196;2023-12-07T01:12:22;78.87;;;23.00;;
71665;SDS011;59503;53.486;10.196;2023-12-07T01:14:48;85.33;;;22.67;;
71665;SDS011;59503;53.486;10.196;2023-12-07T01:17:13;78.57;;;21.37;;
71665;SDS011;59503;53.486;10.196;2023-12-07T01:19:39;84.03;;;20.97;;
71665;SDS011;59503;53.486;10.196;2023-12-07T01:22:04;80.37;;;20.73;;
71665;SDS011;59503;53.486;10.196;2023-12-07T01:24:29;92.57;;;22.97;;
71665;SDS011;59503;53.486;10.196;2023-12-07T01:26:55;80.90;;;21.40;;
71665;SDS011;59503;53.486;10.196;2023-12-07T01:29:20;86.55;;;22.38;;
71665;SDS011;59503;53.486;10.196;2023-12-07T01:31:46;82.43;;;22.30;;
71665;SDS011;59503;53.486;10.196;2023-12-07T01:34:11;76.57;;;22.60;;
71665;SDS011;59503;53.486;10.196;2023-12-07T01:36:37;83.73;;;22.17;;
71665;SDS011;59503;53.486;10.196;2023-12-07T01:39:02;78.90;;;21.77;;
71665;SDS011;59503;53.486;10.196;2023-12-07T01:41:28;87.50;;;22.73;;
71665;SDS011;59503;53.486;10.196;2023-12-07T01:43:53;82.65;;;22.30;;
71665;SDS011;59503;53.486;10.196;2023-12-07T01:46:19;85.37;;;21.90;;
71665;SDS011;59503;53.486;10.196;2023-12-07T01:48:45;84.78;;;23.08;;
71665;SDS011;59503;53.486;10.196;2023-12-07T01:51:14;81.20;;;22.70;;
71665;SDS011;59503;53.486;10.196;2023-12-07T01:53:40;86.15;;;22.38;;
71665;SDS011;59503;53.486;10.196;2023-12-07T01:56:06;77.53;;;22.17;;
71665;SDS011;59503;53.486;10.196;2023-12-07T01:58:33;71.87;;;20.97;;
71665;SDS011;59503;53.486;10.196;2023-12-07T02:01:00;71.20;;;20.52;;
71665;SDS011;59503;53.486;10.196;2023-12-07T02:03:26;74.55;;;20.35;;
71665;SDS011;59503;53.486;10.196;2023-12-07T02:05:53;70.15;;;20.92;;
71665;SDS011;59503;53.486;10.196;2023-12-07T02:08:18;75.57;;;20.53;;
71665;SDS011;59503;53.486;10.196;2023-12-07T02:10:43;70.53;;;19.33;;
71665;SDS011;59503;53.486;10.196;2023-12-07T02:13:09;82.17;;;21.50;;
71665;SDS011;59503;53.486;10.196;2023-12-07T02:15:34;77.33;;;20.50;;
71665;SDS011;59503;53.486;10.196;2023-12-07T02:18:03;75.20;;;19.53;;
71665;SDS011;59503;53.486;10.196;2023-12-07T02:23:39;73.25;;;21.45;;
71665;SDS011;59503;53.486;10.196;2023-12-07T02:26:06;76.73;;;19.97;;
71665;SDS011;59503;53.486;10.196;2023-12-07T02:28:35;77.57;;;21.13;;
71665;SDS011;59503;53.486;10.196;2023-12-07T02:31:01;75.60;;;20.77;;
71665;SDS011;59503;53.486;10.196;2023-12-07T02:33:26;76.82;;;21.58;;
71665;SDS011;59503;53.486;10.196;2023-12-07T02:35:51;71.83;;;19.77;;
71665;SDS011;59503;53.486;10.196;2023-12-07T02:38:17;77.10;;;21.10;;
71665;SDS011;59503;53.486;10.196;2023-12-07T02:40:43;84.82;;;23.08;;
71665;SDS011;59503;53.486;10.196;2023-12-07T02:43:10;70.85;;;21.35;;
71665;SDS011;59503;53.486;10.196;2023-12-07T02:45:36;68.85;;;20.27;;
71665;SDS011;59503;53.486;10.196;2023-12-07T02:48:02;82.47;;;21.93;;
71665;SDS011;59503;53.486;10.196;2023-12-07T02:50:28;80.78;;;22.17;;
71665;SDS011;59503;53.486;10.196;2023-12-07T02:52:53;74.77;;;23.50;;
71665;SDS011;59503;53.486;10.196;2023-12-07T02:55:21;79.38;;;21.15;;
71665;SDS011;59503;53.486;10.196;2023-12-07T02:57:46;69.10;;;20.03;;
71665;SDS011;59503;53.486;10.196;2023-12-07T03:00:12;71.67;;;20.53;;
71665;SDS011;59503;53.486;10.196;2023-12-07T03:02:39;72.75;;;21.88;;
71665;SDS011;59503;53.486;10.196;2023-12-07T03:05:06;68.47;;;20.10;;
71665;SDS011;59503;53.486;10.196;2023-12-07T03:07:32;80.53;;;22.05;;
71665;SDS011;59503;53.486;10.196;2023-12-07T03:09:59;75.05;;;22.80;;
71665;SDS011;59503;53.486;10.196;2023-12-07T03:12:24;61.97;;;19.13;;
71665;SDS011;59503;53.486;10.196;2023-12-07T03:14:50;64.23;;;19.63;;
71665;SDS011;59503;53.486;10.196;2023-12-07T03:17:15;68.70;;;20.17;;
71665;SDS011;59503;53.486;10.196;2023-12-07T03:19:41;67.17;;;20.63;;
71665;SDS011;59503;53.486;10.196;2023-12-07T03:22:07;68.53;;;21.85;;
71665;SDS011;59503;53.486;10.196;2023-12-07T03:24:34;67.37;;;20.47;;
71665;SDS011;59503;53.486;10.196;2023-12-07T03:27:03;66.65;;;19.38;;
71665;SDS011;59503;53.486;10.196;2023-12-07T03:29:29;69.30;;;19.73;;
71665;SDS011;59503;53.486;10.196;2023-12-07T03:31:55;64.20;;;19.00;;
71665;SDS011;59503;53.486;10.196;2023-12-07T03:34:21;66.80;;;18.67;;
71665;SDS011;59503;53.486;10.196;2023-12-07T03:36:46;69.23;;;21.00;;
71665;SDS011;59503;53.486;10.196;2023-12-07T03:39:16;60.65;;;20.40;;
71665;SDS011;59503;53.486;10.196;2023-12-07T03:41:47;67.00;;;19.35;;
71665;SDS011;59503;53.486;10.196;2023-12-07T03:44:13;70.53;;;21.73;;
71665;SDS011;59503;53.486;10.196;2023-12-07T03:46:39;60.57;;;18.50;;
71665;SDS011;59503;53.486;10.196;2023-12-07T03:49:05;57.20;;;18.58;;
71665;SDS011;59503;53.486;10.196;2023-12-07T03:51:30;59.87;;;19.60;;
71665;SDS011;59503;53.486;10.196;2023-12-07T03:53:57;65.78;;;19.80;;
71665;SDS011;59503;53.486;10.196;2023-12-07T03:56:26;63.67;;;19.20;;
71665;SDS011;59503;53.486;10.196;2023-12-07T03:58:53;63.53;;;19.08;;
71665;SDS011;59503;53.486;10.196;2023-12-07T04:01:25;61.65;;;19.10;;
71665;SDS011;59503;53.486;10.196;2023-12-07T04:03:52;48.13;;;17.43;;
71665;SDS011;59503;53.486;10.196;2023-12-07T04:06:18;64.05;;;18.08;;
71665;SDS011;59503;53.486;10.196;2023-12-07T04:08:44;60.05;;;17.90;;
71665;SDS011;59503;53.486;10.196;2023-12-07T04:11:10;59.90;;;19.20;;
71665;SDS011;59503;53.486;10.196;2023-12-07T04:13:36;74.07;;;20.80;;
71665;SDS011;59503;53.486;10.196;2023-12-07T04:16:01;69.40;;;20.88;;
71665;SDS011;59503;53.486;10.196;2023-12-07T04:18:28;69.28;;;21.73;;
71665;SDS011;59503;53.486;10.196;2023-12-07T04:20:54;69.97;;;20.50;;
71665;SDS011;59503;53.486;10.196;2023-12-07T04:23:19;67.33;;;19.13;;
71665;SDS011;59503;53.486;10.196;2023-12-07T04:25:45;68.80;;;20.30;;
71665;SDS011;59503;53.486;10.196;2023-12-07T04:28:10;69.50;;;19.20;;
71665;SDS011;59503;53.486;10.196;2023-12-07T04:30:35;67.13;;;20.23;;
71665;SDS011;59503;53.486;10.196;2023-12-07T04:33:01;64.83;;;20.50;;
71665;SDS011;59503;53.486;10.196;2023-12-07T04:35:26;70.90;;;21.00;;
71665;SDS011;59503;53.486;10.196;2023-12-07T04:37:53;79.28;;;23.45;;
71665;SDS011;59503;53.486;10.196;2023-12-07T04:40:19;75.23;;;21.87;;
71665;SDS011;59503;53.486;10.196;2023-12-07T04:42:44;96.97;;;23.13;;
71665;SDS011;59503;53.486;10.196;2023-12-07T04:45:10;93.33;;;24.03;;
71665;SDS011;59503;53.486;10.196;2023-12-07T04:47:35;85.20;;;23.50;;
71665;SDS011;59503;53.486;10.196;2023-12-07T04:50:01;90.15;;;21.33;;
71665;SDS011;59503;53.486;10.196;2023-12-07T04:52:27;81.43;;;21.40;;
71665;SDS011;59503;53.486;10.196;2023-12-07T04:54:52;79.25;;;21.55;;
71665;SDS011;59503;53.486;10.196;2023-12-07T04:57:18;66.57;;;19.23;;
71665;SDS011;59503;53.486;10.196;2023-12-07T04:59:43;73.20;;;19.70;;
71665;SDS011;59503;53.486;10.196;2023-12-07T05:02:15;63.63;;;18.40;;
71665;SDS011;59503;53.486;10.196;2023-12-07T05:04:42;83.35;;;21.52;;
71665;SDS011;59503;53.486;10.196;2023-12-07T05:07:07;74.40;;;20.05;;
71665;SDS011;59503;53.486;10.196;2023-12-07T05:09:33;91.50;;;22.80;;
71665;SDS011;59503;53.486;10.196;2023-12-07T05:11:59;78.95;;;20.08;;
71665;SDS011;59503;53.486;10.196;2023-12-07T05:14:24;71.50;;;19.60;;
71665;SDS011;59503;53.486;10.196;2023-12-07T05:16:50;71.50;;;20.10;;
71665;SDS011;59503;53.486;10.196;2023-12-07T05:19:21;75.75;;;19.58;;
71665;SDS011;59503;53.486;10.196;2023-12-07T05:21:47;78.20;;;20.10;;
71665;SDS011;59503;53.486;10.196;2023-12-07T05:24:13;72.47;;;19.30;;
71665;SDS011;59503;53.486;10.196;2023-12-07T05:26:42;76.10;;;20.27;;
71665;SDS011;59503;53.486;10.196;2023-12-07T05:29:08;87.57;;;21.55;;
71665;SDS011;59503;53.486;10.196;2023-12-07T05:31:35;77.80;;;21.13;;
71665;SDS011;59503;53.486;10.196;2023-12-07T05:34:01;72.68;;;19.38;;
71665;SDS011;59503;53.486;10.196;2023-12-07T05:36:27;73.18;;;21.08;;
71665;SDS011;59503;53.486;10.196;2023-12-07T05:38:52;81.70;;;21.37;;
71665;SDS011;59503;53.486;10.196;2023-12-07T05:41:17;65.47;;;20.40;;
71665;SDS011;59503;53.486;10.196;2023-12-07T05:43:43;68.87;;;18.63;;
71665;SDS011;59503;53.486;10.196;2023-12-07T05:46:09;65.38;;;19.58;;
71665;SDS011;59503;53.486;10.196;2023-12-07T05:48:34;57.77;;;19.03;;
71665;SDS011;59503;53.486;10.196;2023-12-07T05:51:01;56.13;;;16.60;;
71665;SDS011;59503;53.486;10.196;2023-12-07T05:53:27;75.53;;;21.42;;
71665;SDS011;59503;53.486;10.196;2023-12-07T05:55:53;64.90;;;20.48;;
71665;SDS011;59503;53.486;10.196;2023-12-07T05:58:19;60.43;;;18.13;;
71665;SDS011;59503;53.486;10.196;2023-12-07T06:00:45;63.33;;;18.45;;
71665;SDS011;59503;53.486;10.196;2023-12-07T06:03:12;59.95;;;18.67;;
71665;SDS011;59503;53.486;10.196;2023-12-07T06:05:38;63.73;;;18.73;;
71665;SDS011;59503;53.486;10.196;2023-12-07T06:08:04;66.18;;;17.80;;
71665;SDS011;59503;53.486;10.196;2023-12-07T06:10:30;57.22;;;16.80;;
71665;SDS011;59503;53.486;10.196;2023-12-07T06:12:55;64.47;;;18.77;;
71665;SDS011;59503;53.486;10.196;2023-12-07T06:15:23;56.47;;;17.63;;
71665;SDS011;59503;53.486;10.196;2023-12-07T06:17:51;64.75;;;18.27;;
71665;SDS011;59503;53.486;10.196;2023-12-07T06:20:16;55.60;;;17.57;;
71665;SDS011;59503;53.486;10.196;2023-12-07T06:22:42;58.73;;;17.87;;
71665;SDS011;59503;53.486;10.196;2023-12-07T06:25:07;60.23;;;19.47;;
71665;SDS011;59503;53.486;10.196;2023-12-07T06:27:34;62.03;;;18.08;;
71665;SDS011;59503;53.486;10.196;2023-12-07T06:30:03;57.78;;;19.33;;
71665;SDS011;59503;53.486;10.196;2023-12-07T06:32:31;53.92;;;17.48;;
71665;SDS011;59503;53.486;10.196;2023-12-07T06:34:57;58.42;;;18.90;;
71665;SDS011;59503;53.486;10.196;2023-12-07T06:37:22;61.03;;;19.17;;
71665;SDS011;59503;53.486;10.196;2023-12-07T06:39:48;61.77;;;18.93;;
71665;SDS011;59503;53.486;10.196;2023-12-07T06:42:14;57.30;;;17.73;;
71665;SDS011;59503;53.486;10.196;2023-12-07T06:44:40;61.80;;;19.80;;
71665;SDS011;59503;53.486;10.196;2023-12-07T06:47:08;56.92;;;17.90;;
71665;SDS011;59503;53.486;10.196;2023-12-07T06:49:33;58.00;;;18.43;;
71665;SDS011;59503;53.486;10.196;2023-12-07T06:51:59;60.05;;;19.05;;
71665;SDS011;59503;53.486;10.196;2023-12-07T06:54:24;56.07;;;18.90;;
71665;SDS011;59503;53.486;10.196;2023-12-07T06:56:50;64.67;;;19.40;;
71665;SDS011;59503;53.486;10.196;2023-12-07T06:59:15;66.57;;;20.07;;
71665;SDS011;59503;53.486;10.196;2023-12-07T07:01:41;63.53;;;18.70;;
71665;SDS011;59503;53.486;10.196;2023-12-07T07:04:06;56.37;;;19.23;;
71665;SDS011;59503;53.486;10.196;2023-12-07T07:06:32;54.87;;;18.50;;
71665;SDS011;59503;53.486;10.196;2023-12-07T07:08:57;58.50;;;20.05;;
71665;SDS011;59503;53.486;10.196;2023-12-07T07:11:23;61.20;;;19.77;;
71665;SDS011;59503;53.486;10.196;2023-12-07T07:13:48;69.28;;;20.67;;
71665;SDS011;59503;53.486;10.196;2023-12-07T07:16:14;56.00;;;17.80;;
71665;SDS011;59503;53.486;10.196;2023-12-07T07:18:40;53.40;;;18.90;;
71665;SDS011;59503;53.486;10.196;2023-12-07T07:21:06;53.63;;;17.42;;
71665;SDS011;59503;53.486;10.196;2023-12-07T07:23:32;56.67;;;17.83;;
71665;SDS011;59503;53.486;10.196;2023-12-07T07:25:58;55.67;;;18.98;;
71665;SDS011;59503;53.486;10.196;2023-12-07T07:28:24;58.30;;;17.87;;
71665;SDS011;59503;53.486;10.196;2023-12-07T07:30:49;52.93;;;17.30;;
71665;SDS011;59503;53.486;10.196;2023-12-07T07:33:16;56.38;;;18.30;;
71665;SDS011;59503;53.486;10.196;2023-12-07T07:35:41;58.83;;;19.33;;
71665;SDS011;59503;53.486;10.196;2023-12-07T07:38:07;56.43;;;18.70;;
71665;SDS011;59503;53.486;10.196;2023-12-07T07:40:32;63.20;;;20.52;;
71665;SDS011;59503;53.486;10.196;2023-12-07T07:42:58;67.47;;;19.40;;
71665;SDS011;59503;53.486;10.196;2023-12-07T07:45:23;60.15;;;19.00;;
71665;SDS011;59503;53.486;10.196;2023-12-07T07:47:50;55.33;;;20.00;;
71665;SDS011;59503;53.486;10.196;2023-12-07T07:50:15;51.60;;;18.08;;
71665;SDS011;59503;53.486;10.196;2023-12-07T07:52:41;53.20;;;19.60;;
71665;SDS011;59503;53.486;10.196;2023-12-07T07:55:07;64.40;;;20.23;;
71665;SDS011;59503;53.486;10.196;2023-12-07T07:57:33;63.72;;;19.63;;
71665;SDS011;59503;53.486;10.196;2023-12-07T07:59:58;59.20;;;19.93;;
71665;SDS011;59503;53.486;10.196;2023-12-07T08:02:24;59.67;;;20.33;;
71665;SDS011;59503;53.486;10.196;2023-12-07T08:04:49;61.72;;;19.77;;
71665;SDS011;59503;53.486;10.196;2023-12-07T08:07:16;61.30;;;19.53;;
71665;SDS011;59503;53.486;10.196;2023-12-07T08:09:42;63.25;;;21.70;;
71665;SDS011;59503;53.486;10.196;2023-12-07T08:12:08;61.13;;;21.00;;
71665;SDS011;59503;53.486;10.196;2023-12-07T08:14:36;59.25;;;21.02;;
71665;SDS011;59503;53.486;10.196;2023-12-07T08:17:05;62.42;;;20.33;;
71665;SDS011;59503;53.486;10.196;2023-12-07T08:19:30;60.20;;;21.23;;
71665;SDS011;59503;53.486;10.196;2023-12-07T08:21:56;68.83;;;21.17;;
71665;SDS011;59503;53.486;10.196;2023-12-07T08:24:22;62.30;;;20.77;;
71665;SDS011;59503;53.486;10.196;2023-12-07T08:26:47;64.77;;;20.57;;
71665;SDS011;59503;53.486;10.196;2023-12-07T08:29:13;71.30;;;22.37;;
71665;SDS011;59503;53.486;10.196;2023-12-07T08:31:41;64.75;;;21.08;;
71665;SDS011;59503;53.486;10.196;2023-12-07T08:34:07;61.83;;;20.17;;
71665;SDS011;59503;53.486;10.196;2023-12-07T08:36:33;66.20;;;20.53;;
71665;SDS011;59503;53.486;10.196;2023-12-07T08:38:58;65.73;;;21.97;;
71665;SDS011;59503;53.486;10.196;2023-12-07T08:41:24;73.40;;;24.20;;
71665;SDS011;59503;53.486;10.196;2023-12-07T08:43:50;66.93;;;21.20;;
71665;SDS011;59503;53.486;10.196;2023-12-07T08:46:15;66.90;;;21.73;;
71665;SDS011;59503;53.486;10.196;2023-12-07T08:48:42;70.38;;;22.67;;
71665;SDS011;59503;53.486;10.196;2023-12-07T08:51:08;61.10;;;21.27;;
71665;SDS011;59503;53.486;10.196;2023-12-07T08:53:34;78.60;;;22.95;;
71665;SDS011;59503;53.486;10.196;2023-12-07T08:56:00;70.03;;;23.38;;
71665;SDS011;59503;53.486;10.196;2023-12-07T08:58:26;74.40;;;23.17;;
71665;SDS011;59503;53.486;10.196;2023-12-07T09:00:52;78.10;;;24.23;;
71665;SDS011;59503;53.486;10.196;2023-12-07T09:03:17;65.13;;;22.20;;
71665;SDS011;59503;53.486;10.196;2023-12-07T09:05:43;78.63;;;23.90;;
71665;SDS011;59503;53.486;10.196;2023-12-07T09:08:08;74.25;;;24.42;;
71665;SDS011;59503;53.486;10.196;2023-12-07T09:10:35;69.72;;;21.77;;
71665;SDS011;59503;53.486;10.196;2023-12-07T09:13:00;64.73;;;23.37;;
71665;SDS011;59503;53.486;10.196;2023-12-07T09:15:26;75.50;;;23.67;;
71665;SDS011;59503;53.486;10.196;2023-12-07T09:17:51;61.80;;;20.67;;
71665;SDS011;59503;53.486;10.196;2023-12-07T09:20:16;61.73;;;22.00;;
71665;SDS011;59503;53.486;10.196;2023-12-07T09:22:45;57.67;;;20.33;;
71665;SDS011;59503;53.486;10.196;2023-12-07T09:25:12;64.07;;;22.05;;
71665;SDS011;59503;53.486;10.196;2023-12-07T09:27:40;76.70;;;25.10;;
71665;SDS011;59503;53.486;10.196;2023-12-07T09:30:06;72.43;;;24.77;;
71665;SDS011;59503;53.486;10.196;2023-12-07T09:32:39;69.93;;;23.30;;
71665;SDS011;59503;53.486;10.196;2023-12-07T09:35:07;64.78;;;21.50;;
71665;SDS011;59503;53.486;10.196;2023-12-07T09:37:39;68.32;;;22.42;;
71665;SDS011;59503;53.486;10.196;2023-12-07T09:40:05;64.07;;;23.65;;
71665;SDS011;59503;53.486;10.196;2023-12-07T09:42:32;68.43;;;23.17;;
71665;SDS011;59503;53.486;10.196;2023-12-07T09:44:58;60.22;;;21.42;;
71665;SDS011;59503;53.486;10.196;2023-12-07T09:47:26;61.35;;;22.17;;
71665;SDS011;59503;53.486;10.196;2023-12-07T09:49:52;64.88;;;23.40;;
71665;SDS011;59503;53.486;10.196;2023-12-07T09:52:19;67.30;;;22.90;;
71665;SDS011;59503;53.486;10.196;2023-12-07T09:54:46;63.42;;;22.90;;
71665;SDS011;59503;53.486;10.196;2023-12-07T09:57:12;71.00;;;22.40;;
71665;SDS011;59503;53.486;10.196;2023-12-07T09:59:39;62.83;;;23.55;;
71665;SDS011;59503;53.486;10.196;2023-12-07T10:02:06;65.03;;;23.20;;
71665;SDS011;59503;53.486;10.196;2023-12-07T10:04:32;62.77;;;23.33;;
71665;SDS011;59503;53.486;10.196;2023-12-07T10:06:58;61.40;;;21.98;;
71665;SDS011;59503;53.486;10.196;2023-12-07T10:09:23;70.07;;;23.67;;
71665;SDS011;59503;53.486;10.196;2023-12-07T10:11:49;68.35;;;23.27;;
71665;SDS011;59503;53.486;10.196;2023-12-07T10:14:27;75.77;;;24.10;;
71665;SDS011;59503;53.486;10.196;2023-12-07T10:16:53;61.40;;;23.50;;
71665;SDS011;59503;53.486;10.196;2023-12-07T10:19:23;75.22;;;24.05;;
71665;SDS011;59503;53.486;10.196;2023-12-07T10:21:50;66.88;;;23.85;;
71665;SDS011;59503;53.486;10.196;2023-12-07T10:24:20;68.50;;;23.45;;
71665;SDS011;59503;53.486;10.196;2023-12-07T10:26:47;61.23;;;19.83;;
71665;SDS011;59503;53.486;10.196;2023-12-07T10:29:14;66.97;;;21.65;;
71665;SDS011;59503;53.486;10.196;2023-12-07T10:31:39;65.13;;;22.13;;
71665;SDS011;59503;53.486;10.196;2023-12-07T10:34:05;57.77;;;21.53;;
71665;SDS011;59503;53.486;10.196;2023-12-07T10:36:32;65.18;;;21.40;;
71665;SDS011;59503;53.486;10.196;2023-12-07T10:38:57;63.37;;;21.90;;
71665;SDS011;59503;53.486;10.196;2023-12-07T10:41:23;54.70;;;20.35;;
71665;SDS011;59503;53.486;10.196;2023-12-07T10:43:53;56.50;;;18.83;;
71665;SDS011;59503;53.486;10.196;2023-12-07T10:46:22;59.05;;;20.60;;
71665;SDS011;59503;53.486;10.196;2023-12-07T10:48:48;61.03;;;20.77;;
71665;SDS011;59503;53.486;10.196;2023-12-07T10:51:39;65.23;;;21.03;;
71665;SDS011;59503;53.486;10.196;2023-12-07T10:54:35;54.30;;;20.90;;
71665;SDS011;59503;53.486;10.196;2023-12-07T10:57:21;59.00;;;19.48;;
71665;SDS011;59503;53.486;10.196;2023-12-07T10:59:47;62.50;;;20.95;;
71665;SDS011;59503;53.486;10.196;2023-12-07T11:02:15;64.53;;;21.67;;
71665;SDS011;59503;53.486;10.196;2023-12-07T11:04:42;59.20;;;21.17;;
71665;SDS011;59503;53.486;10.196;2023-12-07T11:07:12;60.60;;;19.88;;
71665;SDS011;59503;53.486;10.196;2023-12-07T11:09:47;61.58;;;20.50;;
71665;SDS011;59503;53.486;10.196;2023-12-07T11:12:44;64.68;;;21.08;;
71665;SDS011;59503;53.486;10.196;2023-12-07T11:15:16;57.22;;;20.00;;
71665;SDS011;59503;53.486;10.196;2023-12-07T11:17:55;57.90;;;20.00;;
71665;SDS011;59503;53.486;10.196;2023-12-07T11:20:22;59.53;;;20.52;;
71665;SDS011;59503;53.486;10.196;2023-12-07T11:22:59;46.78;;;18.23;;
71665;SDS011;59503;53.486;10.196;2023-12-07T11:25:24;53.17;;;18.90;;
71665;SDS011;59503;53.486;10.196;2023-12-07T11:27:59;53.93;;;19.53;;
71665;SDS011;59503;53.486;10.196;2023-12-07T11:30:25;54.55;;;19.27;;
71665;SDS011;59503;53.486;10.196;2023-12-07T11:32:51;54.80;;;18.03;;
71665;SDS011;59503;53.486;10.196;2023-12-07T11:35:16;53.03;;;18.45;;
71665;SDS011;59503;53.486;10.196;2023-12-07T11:38:03;53.30;;;18.70;;
71665;SDS011;59503;53.486;10.196;2023-12-07T11:40:31;52.33;;;17.85;;
71665;SDS011;59503;53.486;10.196;2023-12-07T11:42:59;54.08;;;19.15;;
71665;SDS011;59503;53.486;10.196;2023-12-07T11:45:37;57.03;;;18.70;;
71665;SDS011;59503;53.486;10.196;2023-12-07T11:50:33;45.38;;;17.77;;
71665;SDS011;59503;53.486;10.196;2023-12-07T11:52:59;53.30;;;17.93;;
71665;SDS011;59503;53.486;10.196;2023-12-07T11:55:24;52.80;;;18.70;;
71665;SDS011;59503;53.486;10.196;2023-12-07T11:57:49;59.60;;;21.02;;
71665;SDS011;59503;53.486;10.196;2023-12-07T12:00:15;52.63;;;19.20;;
71665;SDS011;59503;53.486;10.196;2023-12-07T12:02:42;55.47;;;19.80;;
71665;SDS011;59503;53.486;10.196;2023-12-07T12:05:09;54.63;;;19.87;;
71665;SDS011;59503;53.486;10.196;2023-12-07T12:07:35;49.83;;;18.58;;
71665;SDS011;59503;53.486;10.196;2023-12-07T12:10:02;48.70;;;18.03;;
71665;SDS011;59503;53.486;10.196;2023-12-07T12:12:29;49.78;;;18.13;;
71665;SDS011;59503;53.486;10.196;2023-12-07T12:14:54;55.92;;;21.13;;
71665;SDS011;59503;53.486;10.196;2023-12-07T12:17:20;51.50;;;18.33;;
71665;SDS011;59503;53.486;10.196;2023-12-07T12:19:46;55.97;;;19.80;;
71665;SDS011;59503;53.486;10.196;2023-12-07T12:22:11;53.08;;;18.45;;
71665;SDS011;59503;53.486;10.196;2023-12-07T12:24:37;55.90;;;19.03;;
71665;SDS011;59503;53.486;10.196;2023-12-07T12:27:05;52.83;;;18.50;;
71665;SDS011;59503;53.486;10.196;2023-12-07T12:29:30;56.83;;;19.70;;
71665;SDS011;59503;53.486;10.196;2023-12-07T12:31:58;64.50;;;20.83;;
71665;SDS011;59503;53.486;10.196;2023-12-07T12:34:23;57.10;;;20.57;;
71665;SDS011;59503;53.486;10.196;2023-12-07T12:36:49;62.78;;;20.45;;
71665;SDS011;59503;53.486;10.196;2023-12-07T12:39:15;62.80;;;21.30;;
71665;SDS011;59503;53.486;10.196;2023-12-07T12:41:40;58.53;;;20.02;;
71665;SDS011;59503;53.486;10.196;2023-12-07T12:44:06;64.83;;;20.97;;
71665;SDS011;59503;53.486;10.196;2023-12-07T12:46:32;64.97;;;20.85;;
71665;SDS011;59503;53.486;10.196;2023-12-07T12:48:59;56.60;;;19.77;;
71665;SDS011;59503;53.486;10.196;2023-12-07T12:51:26;64.83;;;21.67;;
71665;SDS011;59503;53.486;10.196;2023-12-07T12:53:53;63.47;;;22.52;;
71665;SDS011;59503;53.486;10.196;2023-12-07T12:56:20;70.50;;;22.27;;
71665;SDS011;59503;53.486;10.196;2023-12-07T12:58:47;62.47;;;22.10;;
71665;SDS011;59503;53.486;10.196;2023-12-07T13:01:14;63.20;;;20.20;;
71665;SDS011;59503;53.486;10.196;2023-12-07T13:03:43;65.97;;;21.37;;
71665;SDS011;59503;53.486;10.196;2023-12-07T13:06:14;73.05;;;22.73;;
71665;SDS011;59503;53.486;10.196;2023-12-07T13:08:41;67.30;;;22.25;;
71665;SDS011;59503;53.486;10.196;2023-12-07T13:11:09;68.72;;;22.33;;
71665;SDS011;59503;53.486;10.196;2023-12-07T13:13:35;64.90;;;21.38;;
71665;SDS011;59503;53.486;10.196;2023-12-07T13:16:00;68.03;;;22.10;;
71665;SDS011;59503;53.486;10.196;2023-12-07T13:18:26;54.53;;;20.90;;
71665;SDS011;59503;53.486;10.196;2023-12-07T13:20:51;64.97;;;20.05;;
71665;SDS011;59503;53.486;10.196;2023-12-07T13:23:16;63.37;;;22.47;;
71665;SDS011;59503;53.486;10.196;2023-12-07T13:25:42;59.70;;;20.27;;
71665;SDS011;59503;53.486;10.196;2023-12-07T13:28:07;65.40;;;22.90;;
71665;SDS011;59503;53.486;10.196;2023-12-07T13:30:33;63.07;;;20.47;;
71665;SDS011;59503;53.486;10.196;2023-12-07T13:33:01;63.53;;;22.23;;
71665;SDS011;59503;53.486;10.196;2023-12-07T13:35:28;61.15;;;21.30;;
71665;SDS011;59503;53.486;10.196;2023-12-07T13:37:54;69.07;;;23.95;;
71665;SDS011;59503;53.486;10.196;2023-12-07T13:40:20;63.37;;;20.60;;
71665;SDS011;59503;53.486;10.196;2023-12-07T13:42:45;70.67;;;23.37;;
71665;SDS011;59503;53.486;10.196;2023-12-07T13:45:11;71.97;;;22.67;;
71665;SDS011;59503;53.486;10.196;2023-12-07T13:47:36;67.80;;;21.63;;
71665;SDS011;59503;53.486;10.196;2023-12-07T13:50:03;69.43;;;22.42;;
71665;SDS011;59503;53.486;10.196;2023-12-07T13:52:30;66.77;;;22.00;;
71665;SDS011;59503;53.486;10.196;2023-12-07T13:54:56;67.25;;;21.83;;
71665;SDS011;59503;53.486;10.196;2023-12-07T13:57:22;66.85;;;21.63;;
71665;SDS011;59503;53.486;10.196;2023-12-07T13:59:51;74.07;;;23.60;;
71665;SDS011;59503;53.486;10.196;2023-12-07T14:02:17;68.60;;;21.80;;
71665;SDS011;59503;53.486;10.196;2023-12-07T14:04:44;71.60;;;22.63;;
71665;SDS011;59503;53.486;10.196;2023-12-07T14:07:11;63.90;;;23.05;;
71665;SDS011;59503;53.486;10.196;2023-12-07T14:09:41;67.78;;;22.70;;
71665;SDS011;59503;53.486;10.196;2023-12-07T14:12:09;62.90;;;21.35;;